createdAt,value
2018-09-27T00:04:52.238Z,102515.00
2018-09-27T00:10:56.737Z,102513.00
2018-09-27T00:17:01.793Z,102518.00
2018-09-27T00:23:05.737Z,102510.00
2018-09-27T00:29:09.866Z,102494.00
2018-09-27T00:35:14.798Z,102512.00
2018-09-27T00:41:18.650Z,102497.00
2018-09-27T00:47:23.102Z,102499.00
2018-09-27T00:53:27.135Z,102500.00
2018-09-27T00:59:32.252Z,102506.00
2018-09-27T01:05:36.849Z,102495.00
2018-09-27T01:11:40.760Z,102491.00
2018-09-27T01:17:45.400Z,102492.00
2018-09-27T01:23:49.477Z,102497.00
2018-09-27T01:29:54.699Z,102491.00
2018-09-27T01:35:58.313Z,102487.00
2018-09-27T01:42:02.011Z,102486.00
2018-09-27T01:48:05.574Z,102482.00
2018-09-27T01:54:10.149Z,102465.00
2018-09-27T02:00:14.506Z,102471.00
2018-09-27T02:06:18.856Z,102458.00
2018-09-27T02:12:22.361Z,102454.00
2018-09-27T02:18:26.318Z,102442.00
2018-09-27T02:24:29.998Z,102441.00
2018-09-27T02:30:34.470Z,102434.00
2018-09-27T02:36:38.857Z,102429.00
2018-09-27T02:42:42.454Z,102423.00
2018-09-27T02:48:46.798Z,102431.00
2018-09-27T02:54:51.249Z,102417.00
2018-09-27T03:00:55.635Z,102418.00
2018-09-27T03:06:59.739Z,102418.00
2018-09-27T03:13:04.352Z,102407.00
2018-09-27T03:19:07.950Z,102404.00
2018-09-27T03:25:11.647Z,102395.00
2018-09-27T03:31:15.206Z,102389.00
2018-09-27T03:37:19.385Z,102378.00
2018-09-27T03:43:23.530Z,102382.00
2018-09-27T03:49:27.201Z,102381.00
2018-09-27T03:55:31.654Z,102372.00
2018-09-27T04:01:35.637Z,102370.00
2018-09-27T04:07:39.530Z,102320.00
2018-09-27T04:13:43.276Z,102368.00
2018-09-27T04:19:47.640Z,102355.00
2018-09-27T04:25:52.191Z,102354.00
2018-09-27T04:31:55.851Z,102354.00
2018-09-27T04:38:00.032Z,102356.00
2018-09-27T04:44:03.752Z,102345.00
2018-09-27T04:50:07.306Z,102357.00
2018-09-27T04:56:11.577Z,102355.00
2018-09-27T05:02:16.453Z,102350.00
2018-09-27T05:08:21.921Z,102353.00
2018-09-27T05:14:26.364Z,102342.00
2018-09-27T05:20:30.598Z,102350.00
2018-09-27T05:26:34.087Z,102344.00
2018-09-27T05:32:38.819Z,102342.00
2018-09-27T05:38:43.790Z,102339.00
2018-09-27T05:44:48.358Z,102329.00
2018-09-27T05:50:53.855Z,102333.00
2018-09-27T05:56:58.309Z,102331.00
2018-09-27T06:03:07.005Z,102333.00
2018-09-27T06:09:12.393Z,102332.00
2018-09-27T06:15:18.462Z,102337.00
2018-09-27T06:21:22.757Z,102337.00
2018-09-27T06:27:27.695Z,102327.00
2018-09-27T06:33:32.303Z,102332.00
2018-09-27T06:39:36.131Z,102341.00
2018-09-27T06:45:41.110Z,102323.00
2018-09-27T06:51:45.344Z,102328.00
2018-09-27T06:57:49.999Z,102329.00
2018-09-27T07:03:54.853Z,102310.00
2018-09-27T07:09:59.278Z,102314.00
2018-09-27T07:16:09.777Z,102320.00
2018-09-27T07:22:14.086Z,102316.00
2018-09-27T07:28:17.843Z,102302.00
2018-09-27T07:34:21.372Z,102303.00
2018-09-27T07:40:25.441Z,102307.00
2018-09-27T07:46:29.884Z,102298.00
2018-09-27T07:52:34.169Z,102300.00
2018-09-27T07:58:38.439Z,102300.00
2018-09-27T08:04:42.030Z,102295.00
2018-09-27T08:10:45.895Z,102302.00
2018-09-27T08:16:49.622Z,102295.00
2018-09-27T08:22:53.279Z,102286.00
2018-09-27T08:28:56.802Z,102287.00
2018-09-27T08:35:02.074Z,102277.00
2018-09-27T08:41:06.333Z,102274.00
2018-09-27T08:47:10.189Z,102276.00
2018-09-27T08:53:13.951Z,102267.00
2018-09-27T08:59:18.810Z,102262.00
2018-09-27T09:05:22.482Z,102251.00
2018-09-27T09:11:26.378Z,102245.00
2018-09-27T09:17:29.966Z,102228.00
2018-09-27T09:23:34.216Z,102225.00
2018-09-27T09:29:38.832Z,102211.00
2018-09-27T09:35:43.013Z,102212.00
2018-09-27T09:41:47.011Z,102191.00
2018-09-27T09:47:51.065Z,102195.00
2018-09-27T09:53:54.952Z,102183.00
2018-09-27T09:59:59.185Z,102172.00
2018-09-27T10:06:02.787Z,102165.00
2018-09-27T10:12:06.524Z,102150.00
2018-09-27T10:18:10.583Z,102141.00
2018-09-27T10:24:16.011Z,102139.00
2018-09-27T10:30:24.866Z,102135.00
2018-09-27T10:36:28.794Z,102115.00
2018-09-27T10:42:34.200Z,102113.00
2018-09-27T10:48:37.914Z,102101.00
2018-09-27T10:54:42.373Z,102108.00
2018-09-27T11:00:46.201Z,102072.00
2018-09-27T11:06:50.467Z,102094.00
2018-09-27T11:12:54.683Z,102084.00
2018-09-27T11:18:58.418Z,102076.00
2018-09-27T11:25:03.561Z,102067.00
2018-09-27T11:31:13.060Z,102055.00
2018-09-27T11:37:18.037Z,102043.00
2018-09-27T11:43:22.682Z,102031.00
2018-09-27T11:49:29.739Z,102025.00
2018-09-27T11:55:33.267Z,102018.00
2018-09-27T12:01:37.941Z,102011.00
2018-09-27T12:07:43.467Z,101996.00
2018-09-27T12:13:48.321Z,101994.00
2018-09-27T12:19:52.913Z,101971.00
2018-09-27T12:25:56.596Z,101955.00
2018-09-27T12:32:00.523Z,101948.00
2018-09-27T12:38:05.831Z,101932.00
2018-09-27T12:44:09.467Z,101911.00
2018-09-27T12:50:14.118Z,101910.00
2018-09-27T12:56:18.153Z,101901.00
2018-09-27T13:02:21.792Z,101890.00
2018-09-27T13:08:26.240Z,101882.00
2018-09-27T13:14:30.890Z,101869.00
2018-09-27T13:20:34.596Z,101850.00
2018-09-27T13:26:38.518Z,101841.00
2018-09-27T13:32:43.799Z,101840.00
2018-09-27T13:38:47.212Z,101836.00
2018-09-27T13:44:50.798Z,101829.00
2018-09-27T13:50:54.505Z,101823.00
2018-09-27T13:56:58.025Z,101823.00
2018-09-27T14:03:02.625Z,101805.00
2018-09-27T14:09:09.233Z,101794.00
2018-09-27T14:15:14.033Z,101793.00
2018-09-27T14:21:17.719Z,101786.00
2018-09-27T14:27:22.337Z,101783.00
2018-09-27T14:33:26.351Z,101768.00
2018-09-27T14:39:30.017Z,101760.00
2018-09-27T14:45:33.916Z,101750.00
2018-09-27T14:51:37.593Z,101739.00
2018-09-27T14:57:40.968Z,101741.00
2018-09-27T15:03:45.965Z,101734.00
2018-09-27T15:09:51.881Z,101724.00
2018-09-27T15:15:55.702Z,101723.00
2018-09-27T15:22:13.057Z,101718.00
2018-09-27T15:28:18.212Z,101713.00
2018-09-27T15:34:22.347Z,101713.00
2018-09-27T15:40:27.246Z,101701.00
2018-09-27T15:46:32.245Z,101686.00
2018-09-27T15:52:35.977Z,101691.00
2018-09-27T15:58:39.829Z,101682.00
2018-09-27T16:04:43.487Z,101669.00
2018-09-27T16:10:46.949Z,101670.00
2018-09-27T16:16:51.060Z,101667.00
2018-09-27T16:22:54.537Z,101662.00
2018-09-27T16:28:58.007Z,101660.00
2018-09-27T16:35:01.413Z,101661.00
2018-09-27T16:41:05.616Z,101656.00
2018-09-27T16:47:09.012Z,101653.00
2018-09-27T16:53:14.090Z,101649.00
2018-09-27T16:59:18.132Z,101640.00
2018-09-27T17:05:21.608Z,101640.00
2018-09-27T17:11:26.406Z,101642.00
2018-09-27T17:17:30.027Z,101635.00
2018-09-27T17:23:34.560Z,101643.00
2018-09-27T17:29:38.126Z,101636.00
2018-09-27T17:35:41.634Z,101633.00
2018-09-27T17:41:45.503Z,101630.00
2018-09-27T17:47:48.990Z,101634.00
2018-09-27T17:53:53.774Z,101626.00
2018-09-27T17:59:57.284Z,101630.00
2018-09-27T18:06:00.938Z,101623.00
2018-09-27T18:12:04.692Z,101625.00
2018-09-27T18:18:09.227Z,101624.00
2018-09-27T18:24:13.026Z,101622.00
2018-09-27T18:30:17.680Z,101603.00
2018-09-27T18:36:21.392Z,101620.00
2018-09-27T18:42:24.936Z,101616.00
2018-09-27T18:48:29.880Z,101613.00
2018-09-27T18:54:33.408Z,101614.00
2018-09-27T19:00:38.542Z,101613.00
2018-09-27T19:06:42.744Z,101603.00
2018-09-27T19:12:47.154Z,101615.00
2018-09-27T19:18:50.723Z,101607.00
2018-09-27T19:24:54.430Z,101615.00
2018-09-27T19:30:58.255Z,101609.00
2018-09-27T19:37:01.998Z,101609.00
2018-09-27T19:43:05.765Z,101609.00
2018-09-27T19:49:10.710Z,101622.00
2018-09-27T19:55:14.309Z,101614.00
2018-09-27T20:01:18.110Z,101618.00
2018-09-27T20:07:21.943Z,101608.00
2018-09-27T20:13:29.926Z,101618.00
2018-09-27T20:19:33.605Z,101608.00
2018-09-27T20:25:38.142Z,101599.00
2018-09-27T20:31:42.825Z,101603.00
2018-09-27T20:37:46.518Z,101616.00
2018-09-27T20:43:50.745Z,101622.00
2018-09-27T20:49:56.365Z,101609.00
2018-09-27T20:55:59.955Z,101614.00
2018-09-27T21:02:03.698Z,101613.00
2018-09-27T21:08:08.567Z,101615.00
2018-09-27T21:14:12.336Z,101613.00
2018-09-27T21:20:16.069Z,101606.00
2018-09-27T21:26:19.533Z,101605.00
2018-09-27T21:32:23.093Z,101600.00
2018-09-27T21:38:27.104Z,101617.00
2018-09-27T21:44:30.835Z,101608.00
2018-09-27T21:50:34.280Z,101593.00
2018-09-27T21:56:37.827Z,101603.00
2018-09-27T22:02:41.247Z,101607.00
2018-09-27T22:08:45.287Z,101603.00
2018-09-27T22:14:48.921Z,101606.00
2018-09-27T22:20:52.588Z,101609.00
2018-09-27T22:26:55.946Z,101599.00
2018-09-27T22:33:00.635Z,101595.00
2018-09-27T22:39:05.521Z,101593.00
2018-09-27T22:45:09.466Z,101601.00
2018-09-27T22:51:12.812Z,101585.00
2018-09-27T22:57:16.811Z,101581.00
2018-09-27T23:03:21.175Z,101572.00
2018-09-27T23:09:24.985Z,101569.00
2018-09-27T23:15:28.631Z,101566.00
2018-09-27T23:21:32.666Z,101569.00
2018-09-27T23:27:36.702Z,101576.00
2018-09-27T23:33:40.427Z,101584.00
2018-09-27T23:39:44.266Z,101586.00
2018-09-27T23:45:48.543Z,101580.00
2018-09-27T23:51:51.891Z,101572.00
2018-09-27T23:57:56.458Z,101577.00
